Tuesday, January 23, 2018, 6:57 PM EST
Back to Local

KBTV, Burlington International

Location: South Burlington, VT, United States Lat: 44.467
Local Time: 6:57 PM EST (23:57 GMT) Lon: -73.15
Time Zone: US/Eastern Elev: 334 ft

Show me the last for .
Show Decoded

2018-01-23 18:30 METAR KBTV 232330Z 27018G27KT 5SM -RA BR FEW005 BKN055 OVC070 06/04 A2946 RMK
                 AO2 PK WND 28027/2326 RAB29 P0000 T00560044 =
2018-01-23 17:54 METAR KBTV 232254Z 20008KT 10SM SCT050 SCT060 BKN110 07/05 A2943 RMK AO2 SLP967
                 T00670050 =
2018-01-23 17:25 METAR KBTV 232225Z 18004KT 7SM SCT006 BKN110 05/04 A2942 RMK AO2 T00500039 =
2018-01-23 17:01 METAR KBTV 232201Z 00000KT 5SM BR BKN006 BKN011 BKN110 04/03 A2943 RMK AO2
                 T00440033 =
2018-01-23 16:54 METAR KBTV 232154Z 00000KT 10SM R15/4000VP6000FT FEW011 BKN065 BKN120 04/03
                 A2943 RMK AO2 SLP970 T00390033 =
2018-01-23 15:54 METAR KBTV 232054Z 08005KT 10SM SCT010 BKN065 04/04 A2943 RMK AO2 RAB38E41
                 SLP969 P0000 60003 T00440039 58028 =
2018-01-23 15:43 METAR KBTV 232043Z 07008KT 10SM SCT010 BKN065 04/03 A2943 RMK AO2 RAB38E41
                 PRESFR P0000 T00440033 =
2018-01-23 15:12 METAR KBTV 232012Z 00000KT 10SM BKN010 OVC080 06/04 A2947 RMK AO2 CIG 008V012
                 T00560039 =
2018-01-23 14:54 METAR KBTV 231954Z 00000KT 10SM OVC080 05/04 A2946 RMK AO2 RAE43 SLP980 P0001
                 T00500039 =
2018-01-23 13:54 METAR KBTV 231854Z 11004KT 10SM -RA BKN070 OVC085 06/04 A2949 RMK AO2 SLP987
                 P0002 T00560044 =
2018-01-23 12:54 METAR KBTV 231754Z 12007KT 10SM -RA BKN055 OVC070 05/04 A2951 RMK AO2 SLP998
                 4/004 P0001 60026 T00500039 10056 20028 58045 =
2018-01-23 11:54 METAR KBTV 231654Z 15009KT 10SM -RA OVC060 05/04 A2957 RMK AO2 PRESFR SLP016
                 P0011 T00500039 =
2018-01-23 11:28 METAR KBTV 231628Z 16009KT 5SM -RA BR FEW018 BKN031 OVC055 05/03 A2960 RMK AO2
                 P0008 T00500033 =
2018-01-23 11:01 METAR KBTV 231601Z 17006KT 2SM R15/3500VP6000FT RA BR SCT005 BKN016 OVC034 04/03
                 A2962 RMK AO2 P0002 T00390028 =
2018-01-23 10:57 METAR KBTV 231557Z 17006KT 1 3/4SM R15/3500VP6000FT RA BR BKN005 OVC016 04/03
                 A2962 =
2018-01-23 10:54 METAR KBTV 231554Z 18006KT 2SM R15/3500VP6000FT -RA BR BKN004 OVC016 04/03 A2962
                 RMK AO2 CIG 003V007 SLP034 P0011 T00390028 =
2018-01-23 10:44 METAR KBTV 231544Z 17005KT 3SM R15/3500VP6000FT -RA BR BKN004 OVC015 04/03 A2963
                 RMK AO2 P0009 T00390028 =
2018-01-23 09:54 METAR KBTV 231454Z 00000KT 6SM -RA BR OVC006 03/02 A2965 RMK AO2 RAB00 SLP043
                 P0003 60003 T00280017 56031 =
2018-01-23 09:16 METAR KBTV 231416Z 10003KT 10SM -RA BKN007 OVC023 03/01 A2966 RMK AO2 RAB00
                 P0000 T00330011 =
2018-01-23 08:54 METAR KBTV 231354Z 00000KT 10SM BKN009 OVC024 03/01 A2967 RMK AO2 SLP050
                 T00330006 =
2018-01-23 08:32 METAR KBTV 231332Z 06007KT 10SM BKN011 OVC021 03/01 A2967 RMK AO2 T00330006 =
2018-01-23 07:54 METAR KBTV 231254Z 14005KT 10SM OVC024 03/01 A2970 RMK AO2 SLP060 T00280006 =
2018-01-23 06:54 METAR KBTV 231154Z 15006KT 10SM OVC024 03/01 A2974 RMK AO2 SLP075 4/004 60000
                 70014 T00330006 10033 20017 56040 =
2018-01-23 05:54 METAR KBTV 231054Z 00000KT 10SM OVC025 03/00 A2978 RMK AO2 SLP087 RAE09 P0000
                 T00280000 =
2018-01-23 04:54 METAR KBTV 230954Z 16008G18KT 10SM UP OVC024 03/01 A2982 RMK AO2
                 UPB30E32B42RAB32E42 SLP102 P0000 T00280006 =
2018-01-23 04:34 METAR KBTV 230934Z 16010KT 10SM -RA OVC028 03/01 A2984 RMK AO2 UPB30E32RAB32
                 P0000 T00280006 =
2018-01-23 03:54 METAR KBTV 230854Z 16006KT 10SM BKN032 OVC110 02/00 A2986 RMK AO2 SLP116
                 T00220000 56028 =
2018-01-23 03:18 METAR KBTV 230818Z 14008KT 10SM BKN030 OVC110 02/00 A2986 =
2018-01-23 02:54 METAR KBTV 230754Z 15006KT 10SM OVC029 02/00 A2989 RMK AO2 SLP125 T00220000 =
2018-01-23 01:54 METAR KBTV 230654Z 15007KT 10SM OVC029 02/M01 A2991 RMK AO2 SLP134 T00221006 =
2018-01-23 00:54 METAR KBTV 230554Z 15008KT 10SM OVC028 02/M01 A2994 RMK AO2 SLP144 60003 I1000
                 I6006 T00171011 10017 21033 56033 =
2018-01-22 23:54 METAR KBTV 230454Z 18008G17KT 10SM FEW018 OVC028 01/M01 A2998 RMK AO2 SLP155
                 LAST T00111011 400171056 =
2018-01-22 22:54 METAR KBTV 230354Z COR 17013KT 10SM OVC025 01/M02 A3000 RMK AO2 SLP165 FZRAE52
                 P0001 I1001 T00061022 =
2018-01-22 21:54 METAR KBTV 230254Z COR 19011KT 9SM -FZRA OVC027 M01/M02 A3004 RMK AO2 SLP178
                 FZRAB52 P0001 60002 I1002 I3004 T10061022 58025 =
2018-01-22 21:38 METAR KBTV 230238Z 19010KT 10SM OVC029 M01/M03 A3005 =
2018-01-22 20:54 METAR KBTV 230154Z 19008KT 10SM -FZRA OVC029 M02/M03 A3007 RMK AO2 SLP188 P0000
                 I1001 T10171033 =
2018-01-22 19:54 METAR KBTV 230054Z 21004KT 10SM -FZRA BKN020 OVC028 M03/M05 A3010 RMK AO2 PLE52
                 SLP200 P0001 I1001 T10331050 =

Support USWX by starting your Amazon purchase here.